Time;durP1;ratioP1;P1;durP2;ratioP2;P2;SDS_P1;SDS_P2;PMS_P1;PMS_P2;Temp;Humidity;BMP_temperature;BMP_pressure;BME280_temperature;BME280_humidity;BME280_pressure;Samples;Min_cycle;Max_cycle;Signal;HPM_P1;HPM_P2
2023/10/05 00:03:45;;;;;;;5.43;2.20;;;;;;;;;;5069474;28;20028;-78
2023/10/05 00:06:13;;;;;;;6.00;1.65;;;;;;;;;;5070321;28;20021;-78
2023/10/05 00:08:48;;;;;;;7.50;2.03;;;;;;;;;;5071604;28;20502;-78
2023/10/05 00:11:23;;;;;;;8.18;1.98;;;;;;;;;;5063562;28;20013;-78
2023/10/05 00:13:53;;;;;;;7.20;1.92;;;;;;;;;;5068643;28;20082;-78
2023/10/05 00:16:22;;;;;;;4.45;1.70;;;;;;;;;;5063836;28;20025;-78
2023/10/05 00:18:51;;;;;;;7.65;1.98;;;;;;;;;;5060784;28;20051;-79
2023/10/05 00:21:21;;;;;;;8.05;2.10;;;;;;;;;;5070781;28;20492;-79
2023/10/05 00:23:53;;;;;;;6.57;2.05;;;;;;;;;;5067290;28;20031;-78
2023/10/05 00:26:23;;;;;;;9.85;2.15;;;;;;;;;;5048733;28;20105;-78
2023/10/05 00:31:47;;;;;;;5.50;1.80;;;;;;;;;;5027789;28;20509;-79
2023/10/05 00:34:21;;;;;;;5.55;1.90;;;;;;;;;;5062367;28;20031;-78
2023/10/05 00:36:50;;;;;;;5.38;1.50;;;;;;;;;;5045020;28;20476;-78
2023/10/05 00:39:17;;;;;;;7.18;2.13;;;;;;;;;;5069359;28;20484;-78
2023/10/05 00:41:42;;;;;;;7.45;1.95;;;;;;;;;;5067059;28;20376;-78
2023/10/05 00:44:07;;;;;;;7.10;2.45;;;;;;;;;;5045611;28;20024;-78
2023/10/05 00:46:35;;;;;;;5.47;2.00;;;;;;;;;;5067434;28;20028;-79
2023/10/05 00:49:13;;;;;;;6.78;2.15;;;;;;;;;;5064323;28;20052;-78
2023/10/05 00:51:43;;;;;;;6.90;2.30;;;;;;;;;;5065100;28;20495;-75
2023/10/05 00:54:14;;;;;;;6.57;2.08;;;;;;;;;;5062470;28;20021;-76
2023/10/05 00:56:41;;;;;;;5.28;1.70;;;;;;;;;;5069991;28;20035;-75
2023/10/05 00:59:10;;;;;;;7.75;2.33;;;;;;;;;;5045542;28;20091;-78
2023/10/05 01:01:54;;;;;;;6.82;2.03;;;;;;;;;;5059229;28;20555;-79
2023/10/05 01:04:25;;;;;;;7.72;1.88;;;;;;;;;;5062378;28;20020;-78
2023/10/05 01:09:56;;;;;;;5.43;1.90;;;;;;;;;;5064367;28;20487;-78
2023/10/05 01:14:40;;;;;;;5.00;1.83;;;;;;;;;;5065793;28;20108;-78
2023/10/05 01:17:05;;;;;;;5.03;2.00;;;;;;;;;;5046926;28;20114;-79
2023/10/05 01:19:31;;;;;;;6.13;2.25;;;;;;;;;;5066765;28;20445;-78
2023/10/05 01:21:57;;;;;;;5.13;2.10;;;;;;;;;;5068187;28;20107;-79
2023/10/05 01:24:25;;;;;;;6.70;2.08;;;;;;;;;;5046954;28;20028;-78
2023/10/05 01:26:50;;;;;;;4.70;2.03;;;;;;;;;;5067538;28;20060;-78
2023/10/05 01:29:16;;;;;;;7.47;1.98;;;;;;;;;;5067370;28;20059;-78
2023/10/05 01:31:41;;;;;;;4.80;1.90;;;;;;;;;;5062560;28;20066;-78
2023/10/05 01:34:08;;;;;;;9.35;2.35;;;;;;;;;;5047954;28;20036;-79
2023/10/05 01:36:34;;;;;;;6.00;2.20;;;;;;;;;;5066920;28;20023;-78
2023/10/05 01:39:07;;;;;;;7.50;2.22;;;;;;;;;;5049607;28;20016;-78
2023/10/05 01:41:32;;;;;;;6.07;2.15;;;;;;;;;;5051991;28;20028;-79
2023/10/05 01:44:00;;;;;;;7.35;1.98;;;;;;;;;;5067083;28;20458;-76
2023/10/05 01:46:26;;;;;;;10.18;2.50;;;;;;;;;;5050676;28;20028;-76
2023/10/05 01:48:52;;;;;;;7.97;2.40;;;;;;;;;;5068505;28;20098;-76
2023/10/05 01:51:23;;;;;;;7.72;2.10;;;;;;;;;;5069093;28;20024;-77
2023/10/05 01:53:55;;;;;;;6.45;2.22;;;;;;;;;;5051544;28;20036;-75
2023/10/05 01:56:22;;;;;;;4.63;2.00;;;;;;;;;;5049223;28;20114;-75
2023/10/05 01:58:50;;;;;;;6.65;2.00;;;;;;;;;;5061271;28;20035;-79
2023/10/05 02:01:18;;;;;;;8.50;2.20;;;;;;;;;;5048284;28;20108;-79
2023/10/05 02:03:44;;;;;;;4.82;1.80;;;;;;;;;;5069921;28;20051;-79
2023/10/05 02:06:15;;;;;;;5.10;2.00;;;;;;;;;;5069855;28;20013;-79
2023/10/05 02:08:41;;;;;;;7.13;2.30;;;;;;;;;;5066950;28;20051;-78
2023/10/05 02:11:09;;;;;;;4.60;2.00;;;;;;;;;;5054678;28;20111;-78
2023/10/05 02:13:34;;;;;;;6.68;1.98;;;;;;;;;;5052886;28;20099;-79
2023/10/05 02:16:00;;;;;;;9.57;2.47;;;;;;;;;;5072699;28;20112;-78
2023/10/05 02:18:30;;;;;;;7.05;2.08;;;;;;;;;;5069188;28;20558;-78
2023/10/05 02:21:13;;;;;;;4.85;2.30;;;;;;;;;;5066032;28;20132;-78
2023/10/05 02:23:44;;;;;;;;;;;;;;;;;;5055198;28;22077;-79
2023/10/05 02:26:23;;;;;;;5.57;2.10;;;;;;;;;;5049648;28;20376;-79
2023/10/05 02:28:49;;;;;;;9.50;2.10;;;;;;;;;;5067193;28;20039;-78
2023/10/05 02:31:15;;;;;;;5.45;2.17;;;;;;;;;;5073986;28;20028;-79
2023/10/05 02:33:43;;;;;;;7.32;2.30;;;;;;;;;;5052614;28;20074;-78
2023/10/05 02:36:24;;;;;;;8.48;2.20;;;;;;;;;;5065358;28;20477;-78
2023/10/05 02:38:53;;;;;;;7.88;2.15;;;;;;;;;;5050335;28;20016;-79
2023/10/05 02:41:25;;;;;;;7.28;2.45;;;;;;;;;;5069262;28;20038;-78
2023/10/05 02:43:53;;;;;;;9.03;2.67;;;;;;;;;;5053679;28;20031;-79
2023/10/05 02:46:20;;;;;;;5.78;2.25;;;;;;;;;;5075322;28;20048;-78
2023/10/05 02:48:47;;;;;;;8.27;2.15;;;;;;;;;;5070353;28;20389;-78
2023/10/05 02:51:18;;;;;;;6.57;2.42;;;;;;;;;;5072605;28;20020;-79
2023/10/05 02:53:45;;;;;;;8.98;2.45;;;;;;;;;;5067185;28;20523;-78
2023/10/05 02:56:27;;;;;;;7.57;2.22;;;;;;;;;;5050613;28;20471;-78
2023/10/05 02:58:56;;;;;;;6.30;2.30;;;;;;;;;;5050622;28;20036;-79
2023/10/05 03:01:22;;;;;;;6.57;2.55;;;;;;;;;;5066061;28;20032;-78
2023/10/05 03:03:48;;;;;;;6.35;2.20;;;;;;;;;;5066656;28;20029;-78
2023/10/05 03:06:15;;;;;;;8.00;2.28;;;;;;;;;;5066757;28;20025;-78
2023/10/05 03:08:41;;;;;;;7.30;2.20;;;;;;;;;;5074608;28;20389;-78
2023/10/05 03:11:09;;;;;;;5.53;2.05;;;;;;;;;;5047506;28;20025;-79
2023/10/05 03:13:38;;;;;;;7.50;2.53;;;;;;;;;;5070741;28;20027;-78
2023/10/05 03:16:10;;;;;;;9.98;2.58;;;;;;;;;;5071378;28;20286;-78
2023/10/05 03:18:42;;;;;;;5.50;2.08;;;;;;;;;;5056553;28;20034;-78
2023/10/05 03:21:14;;;;;;;7.15;3.28;;;;;;;;;;5059429;28;20044;-78
2023/10/05 03:23:41;;;;;;;12.07;3.80;;;;;;;;;;5077253;28;20055;-78
2023/10/05 03:26:07;;;;;;;8.52;2.40;;;;;;;;;;5062761;28;20456;-78
2023/10/05 03:28:35;;;;;;;7.00;2.50;;;;;;;;;;5071632;28;20101;-78
2023/10/05 03:31:06;;;;;;;7.88;2.17;;;;;;;;;;5072701;28;20028;-78
2023/10/05 03:33:35;;;;;;;8.65;2.83;;;;;;;;;;5065670;28;20100;-79
2023/10/05 03:36:06;;;;;;;7.28;2.47;;;;;;;;;;5067354;28;20500;-78
2023/10/05 03:38:33;;;;;;;6.35;2.25;;;;;;;;;;5054034;28;20024;-78
2023/10/05 03:41:04;;;;;;;7.55;2.88;;;;;;;;;;5071977;28;20020;-79
2023/10/05 03:43:31;;;;;;;6.47;2.63;;;;;;;;;;5063750;28;20024;-78
2023/10/05 03:45:57;;;;;;;5.40;2.35;;;;;;;;;;5046989;28;20464;-79
2023/10/05 03:48:22;;;;;;;7.30;2.40;;;;;;;;;;5065372;28;20036;-79
2023/10/05 03:50:48;;;;;;;8.05;2.47;;;;;;;;;;5066683;28;20035;-78
2023/10/05 03:53:15;;;;;;;7.32;2.45;;;;;;;;;;5047801;28;20027;-79
2023/10/05 03:55:41;;;;;;;6.20;1.90;;;;;;;;;;5068014;28;20495;-78
2023/10/05 03:58:07;;;;;;;6.75;2.50;;;;;;;;;;5049885;28;20134;-78
2023/10/05 04:00:35;;;;;;;6.35;2.70;;;;;;;;;;5066278;28;20023;-79
2023/10/05 04:03:02;;;;;;;8.80;2.70;;;;;;;;;;5061969;28;20025;-78
2023/10/05 04:05:27;;;;;;;6.43;2.55;;;;;;;;;;5040883;28;20043;-79
2023/10/05 04:08:07;;;;;;;7.55;2.40;;;;;;;;;;5063054;28;20480;-75
2023/10/05 04:10:49;;;;;;;5.25;2.40;;;;;;;;;;5068013;28;20051;-76
2023/10/05 04:13:21;;;;;;;8.52;3.08;;;;;;;;;;5051656;28;20024;-76
2023/10/05 04:15:46;;;;;;;6.15;2.13;;;;;;;;;;5064879;28;20385;-76
2023/10/05 04:18:14;;;;;;;9.20;2.30;;;;;;;;;;5044361;28;20021;-75
2023/10/05 04:20:50;;;;;;;7.50;2.10;;;;;;;;;;5070159;28;20442;-86
2023/10/05 04:23:20;;;;;;;5.40;2.63;;;;;;;;;;5046040;28;20536;-85
2023/10/05 04:25:47;;;;;;;9.07;2.50;;;;;;;;;;5068569;28;20028;-85
2023/10/05 04:28:13;;;;;;;10.07;2.63;;;;;;;;;;5050913;28;20044;-86
2023/10/05 04:30:38;;;;;;;10.13;2.55;;;;;;;;;;5065821;28;20111;-75
2023/10/05 04:33:04;;;;;;;8.35;2.40;;;;;;;;;;5070228;28;20580;-75
2023/10/05 04:35:38;;;;;;;6.22;2.35;;;;;;;;;;5068518;28;20025;-76
2023/10/05 04:38:04;;;;;;;8.40;2.60;;;;;;;;;;5050988;28;20047;-86
2023/10/05 04:40:33;;;;;;;6.95;2.30;;;;;;;;;;5067752;28;20472;-86
2023/10/05 04:43:04;;;;;;;6.40;2.13;;;;;;;;;;5050029;28;20040;-83
2023/10/05 04:45:30;;;;;;;12.10;2.80;;;;;;;;;;5070802;28;20024;-83
2023/10/05 04:47:58;;;;;;;7.47;2.55;;;;;;;;;;5048829;28;20025;-85
2023/10/05 04:50:24;;;;;;;9.07;2.50;;;;;;;;;;5063101;28;20029;-85
2023/10/05 04:52:51;;;;;;;7.95;2.50;;;;;;;;;;5044087;28;20053;-86
2023/10/05 04:55:41;;;;;;;9.45;2.55;;;;;;;;;;5062646;28;20406;-86
2023/10/05 04:58:24;;;;;;;6.22;2.40;;;;;;;;;;5065780;28;20094;-85
2023/10/05 05:00:54;;;;;;;7.13;2.42;;;;;;;;;;5064022;28;20032;-85
2023/10/05 05:06:10;;;;;;;7.25;2.50;;;;;;;;;;5062525;28;20062;-84
2023/10/05 05:08:38;;;;;;;9.93;3.00;;;;;;;;;;5055187;28;20074;-85
2023/10/05 05:11:08;;;;;;;9.35;2.47;;;;;;;;;;5069567;28;20415;-86
2023/10/05 05:13:34;;;;;;;6.65;2.20;;;;;;;;;;5066212;28;20031;-86
2023/10/05 05:16:00;;;;;;;8.02;2.65;;;;;;;;;;5072095;28;20032;-81
2023/10/05 05:18:25;;;;;;;4.88;2.05;;;;;;;;;;5070957;28;20035;-86
2023/10/05 05:20:53;;;;;;;6.88;2.30;;;;;;;;;;5052451;28;20074;-86
2023/10/05 05:23:19;;;;;;;6.28;2.38;;;;;;;;;;5073345;28;20047;-85
2023/10/05 05:25:51;;;;;;;9.00;2.50;;;;;;;;;;5070042;28;20022;-85
2023/10/05 05:28:16;;;;;;;8.55;3.00;;;;;;;;;;5075803;28;20460;-85
2023/10/05 05:30:42;;;;;;;6.30;2.10;;;;;;;;;;5077053;28;20103;-86
2023/10/05 05:33:10;;;;;;;9.40;2.70;;;;;;;;;;5070430;28;20025;-84
2023/10/05 05:35:37;;;;;;;6.72;2.35;;;;;;;;;;5070351;28;20086;-78
2023/10/05 05:38:02;;;;;;;7.93;2.25;;;;;;;;;;5063719;28;20033;-79
2023/10/05 05:40:29;;;;;;;7.50;2.33;;;;;;;;;;5066978;28;20041;-77
2023/10/05 05:42:56;;;;;;;5.82;2.38;;;;;;;;;;5067474;28;20028;-76
2023/10/05 05:45:21;;;;;;;7.70;2.58;;;;;;;;;;5066104;28;20060;-76
2023/10/05 05:47:47;;;;;;;7.80;2.50;;;;;;;;;;5069892;28;20063;-77
2023/10/05 05:50:23;;;;;;;5.97;2.42;;;;;;;;;;5051458;28;20052;-75
2023/10/05 05:52:49;;;;;;;7.03;2.55;;;;;;;;;;5076074;28;20473;-76
2023/10/05 05:55:17;;;;;;;6.30;2.65;;;;;;;;;;5067176;28;20420;-76
2023/10/05 05:57:42;;;;;;;7.18;2.53;;;;;;;;;;5042230;28;20029;-79
2023/10/05 06:00:12;;;;;;;8.50;2.50;;;;;;;;;;5060222;28;20028;-78
2023/10/05 06:02:41;;;;;;;8.10;2.42;;;;;;;;;;5045713;28;20087;-78
2023/10/05 06:05:10;;;;;;;5.63;2.20;;;;;;;;;;5061671;28;20111;-77
2023/10/05 06:07:38;;;;;;;6.85;2.58;;;;;;;;;;5069653;28;20052;-78
2023/10/05 06:10:11;;;;;;;8.55;2.80;;;;;;;;;;5059688;28;20021;-78
2023/10/05 06:12:37;;;;;;;;;;;;;;;;;;5044040;28;20556;-78
2023/10/05 06:15:03;;;;;;;9.15;2.83;;;;;;;;;;5061214;28;19991;-79
2023/10/05 06:17:29;;;;;;;8.45;2.40;;;;;;;;;;5061467;28;20028;-78
2023/10/05 06:19:54;;;;;;;6.53;2.70;;;;;;;;;;5058531;28;20082;-78
2023/10/05 06:22:20;;;;;;;7.15;2.30;;;;;;;;;;5062919;28;20032;-78
2023/10/05 06:24:46;;;;;;;7.82;2.60;;;;;;;;;;5062368;28;20021;-78
2023/10/05 06:27:12;;;;;;;6.78;2.10;;;;;;;;;;5043271;28;20031;-78
2023/10/05 06:29:37;;;;;;;6.95;2.30;;;;;;;;;;5043467;28;20033;-78
2023/10/05 06:32:08;;;;;;;8.23;2.47;;;;;;;;;;5046184;28;20082;-78
2023/10/05 06:34:37;;;;;;;6.18;2.58;;;;;;;;;;5065323;28;20024;-78
2023/10/05 06:37:02;;;;;;;9.55;2.58;;;;;;;;;;5063200;28;20388;-78
2023/10/05 06:39:30;;;;;;;5.28;2.33;;;;;;;;;;5063499;28;20031;-78
2023/10/05 06:41:57;;;;;;;6.10;2.70;;;;;;;;;;5061732;28;20760;-78
2023/10/05 06:44:23;;;;;;;7.00;2.45;;;;;;;;;;5053430;28;20066;-78
2023/10/05 06:46:49;;;;;;;6.60;2.53;;;;;;;;;;5064251;28;20052;-79
2023/10/05 06:49:14;;;;;;;10.60;2.80;;;;;;;;;;5063763;28;20056;-86
2023/10/05 06:51:43;;;;;;;5.85;2.17;;;;;;;;;;5060450;28;20752;-86
2023/10/05 06:54:09;;;;;;;7.03;2.40;;;;;;;;;;5042993;28;20107;-78
2023/10/05 06:56:35;;;;;;;6.95;2.53;;;;;;;;;;5010454;28;1090957;-78
2023/10/05 06:59:00;;;;;;;8.32;2.85;;;;;;;;;;5059098;28;20067;-85
2023/10/05 07:01:26;;;;;;;5.88;2.50;;;;;;;;;;5060109;28;20021;-86
2023/10/05 07:03:55;;;;;;;7.88;2.83;;;;;;;;;;5060694;28;20545;-85
2023/10/05 07:06:24;;;;;;;9.95;3.10;;;;;;;;;;5056840;28;20020;-82
2023/10/05 07:08:52;;;;;;;8.13;2.67;;;;;;;;;;5045938;28;20069;-78
2023/10/05 07:11:20;;;;;;;8.20;3.10;;;;;;;;;;5051489;28;20024;-79
2023/10/05 07:13:46;;;;;;;7.45;3.20;;;;;;;;;;5067392;28;20020;-78
2023/10/05 07:16:12;;;;;;;6.57;2.75;;;;;;;;;;5065427;28;20392;-78
2023/10/05 07:18:39;;;;;;;8.32;2.80;;;;;;;;;;5066241;28;20037;-79
2023/10/05 07:21:05;;;;;;;9.70;3.10;;;;;;;;;;5062273;28;20067;-78
2023/10/05 07:23:31;;;;;;;14.45;3.40;;;;;;;;;;5060185;28;20054;-79
2023/10/05 07:25:58;;;;;;;7.32;2.88;;;;;;;;;;5062342;28;20381;-78
2023/10/05 07:28:23;;;;;;;7.32;3.15;;;;;;;;;;5059193;28;20028;-79
2023/10/05 07:30:48;;;;;;;10.18;2.90;;;;;;;;;;5042137;28;20069;-78
2023/10/05 07:33:14;;;;;;;8.80;2.60;;;;;;;;;;5064168;28;20056;-78
2023/10/05 07:35:40;;;;;;;9.52;3.15;;;;;;;;;;5049537;28;20024;-78
2023/10/05 07:38:06;;;;;;;9.77;3.10;;;;;;;;;;5038516;28;20040;-79
2023/10/05 07:40:35;;;;;;;12.15;4.50;;;;;;;;;;5054784;28;20080;-78
2023/10/05 07:43:01;;;;;;;8.57;3.15;;;;;;;;;;5041191;28;20090;-79
2023/10/05 07:45:26;;;;;;;8.93;3.00;;;;;;;;;;5058393;28;20044;-79
2023/10/05 07:47:52;;;;;;;11.60;3.10;;;;;;;;;;5062239;28;20590;-78
2023/10/05 07:50:18;;;;;;;7.43;2.90;;;;;;;;;;5058972;28;20480;-79
2023/10/05 07:52:48;;;;;;;10.10;2.80;;;;;;;;;;5055932;28;20033;-79
2023/10/05 07:55:13;;;;;;;11.27;2.78;;;;;;;;;;5061543;28;20123;-78
2023/10/05 07:57:39;;;;;;;9.10;3.20;;;;;;;;;;5055823;28;20059;-79
2023/10/05 08:00:06;;;;;;;8.52;3.10;;;;;;;;;;5051941;28;20020;-85
2023/10/05 08:02:31;;;;;;;9.00;3.05;;;;;;;;;;5038347;28;20058;-82
2023/10/05 08:04:56;;;;;;;6.97;2.65;;;;;;;;;;5062145;28;20610;-79
2023/10/05 08:07:22;;;;;;;7.03;3.13;;;;;;;;;;5059336;28;20024;-79
2023/10/05 08:09:48;;;;;;;10.80;3.20;;;;;;;;;;5058251;28;20037;-79
2023/10/05 08:12:15;;;;;;;11.40;3.25;;;;;;;;;;5040365;28;20032;-78
2023/10/05 08:14:40;;;;;;;9.07;3.20;;;;;;;;;;5054220;28;20029;-78
2023/10/05 08:17:06;;;;;;;6.93;2.85;;;;;;;;;;5050439;28;20460;-79
2023/10/05 08:19:31;;;;;;;6.95;3.00;;;;;;;;;;5036079;28;20028;-79
2023/10/05 08:21:56;;;;;;;8.45;3.00;;;;;;;;;;5055228;28;20024;-79
2023/10/05 08:24:23;;;;;;;7.93;3.00;;;;;;;;;;5035382;28;20024;-79
2023/10/05 08:26:52;;;;;;;7.78;3.35;;;;;;;;;;5054144;28;20029;-79
2023/10/05 08:29:18;;;;;;;6.60;3.00;;;;;;;;;;5058918;28;20032;-79
2023/10/05 08:31:44;;;;;;;9.30;2.83;;;;;;;;;;5042914;28;20027;-78
2023/10/05 08:34:22;;;;;;;10.85;3.38;;;;;;;;;;5040292;28;20027;-78
2023/10/05 08:36:54;;;;;;;8.48;3.08;;;;;;;;;;5062815;28;20089;-79
2023/10/05 08:39:25;;;;;;;8.13;3.00;;;;;;;;;;5062037;28;20602;-79
2023/10/05 08:41:54;;;;;;;9.95;3.00;;;;;;;;;;5059559;28;20025;-78
2023/10/05 08:44:27;;;;;;;9.98;3.17;;;;;;;;;;5046145;28;20166;-79
2023/10/05 08:46:58;;;;;;;10.73;2.95;;;;;;;;;;5070823;28;20560;-79
2023/10/05 08:49:24;;;;;;;7.57;2.60;;;;;;;;;;5062330;28;20040;-78
2023/10/05 08:51:51;;;;;;;6.63;2.78;;;;;;;;;;5047185;28;20055;-79
2023/10/05 08:54:21;;;;;;;9.55;2.50;;;;;;;;;;5063341;28;20112;-79
2023/10/05 08:56:47;;;;;;;6.97;2.33;;;;;;;;;;5063396;28;20040;-78
2023/10/05 08:59:16;;;;;;;8.80;3.28;;;;;;;;;;5067080;28;20028;-78
2023/10/05 09:01:43;;;;;;;7.55;2.60;;;;;;;;;;5065318;28;20032;-79
2023/10/05 09:06:49;;;;;;;9.93;2.97;;;;;;;;;;5064365;28;20039;-78
2023/10/05 09:09:15;;;;;;;7.43;2.50;;;;;;;;;;5054359;28;20121;-87
2023/10/05 09:11:41;;;;;;;8.15;2.50;;;;;;;;;;5061104;28;20078;-86
2023/10/05 09:14:12;;;;;;;9.90;2.63;;;;;;;;;;5069460;28;20032;-86
2023/10/05 09:16:42;;;;;;;6.70;2.50;;;;;;;;;;5049700;28;20059;-87
2023/10/05 09:19:23;;;;;;;8.38;2.55;;;;;;;;;;5061958;28;20032;-80
2023/10/05 09:24:25;;;;;;;6.68;2.38;;;;;;;;;;5061788;28;20474;-87
2023/10/05 09:26:56;;;;;;;11.10;3.50;;;;;;;;;;5063265;28;20036;-86
2023/10/05 09:29:23;;;;;;;7.57;2.78;;;;;;;;;;5064845;28;20044;-86
2023/10/05 09:31:53;;;;;;;9.77;3.38;;;;;;;;;;5064227;28;20032;-86
2023/10/05 09:34:35;;;;;;;8.48;2.63;;;;;;;;;;5050336;28;20514;-87
2023/10/05 09:37:05;;;;;;;8.18;2.50;;;;;;;;;;5065782;28;20036;-86
2023/10/05 09:39:53;;;;;;;9.85;3.10;;;;;;;;;;5068808;28;20449;-87
2023/10/05 09:42:25;;;;;;;7.05;2.65;;;;;;;;;;5066703;28;20033;-86
2023/10/05 09:44:53;;;;;;;6.97;2.67;;;;;;;;;;5052398;28;20056;-84
2023/10/05 09:47:25;;;;;;;9.70;2.83;;;;;;;;;;5067447;28;20028;-86
2023/10/05 09:49:53;;;;;;;7.97;2.42;;;;;;;;;;5054942;28;20107;-85
2023/10/05 09:52:21;;;;;;;9.55;2.90;;;;;;;;;;5068452;28;20071;-87
2023/10/05 09:54:47;;;;;;;8.98;2.90;;;;;;;;;;5068980;28;20033;-75
2023/10/05 09:57:16;;;;;;;7.80;3.50;;;;;;;;;;5070920;28;20037;-76
2023/10/05 09:59:45;;;;;;;10.52;2.45;;;;;;;;;;5069283;28;20024;-76
2023/10/05 10:02:12;;;;;;;8.90;2.67;;;;;;;;;;5051284;28;20662;-77
2023/10/05 10:04:39;;;;;;;11.90;2.90;;;;;;;;;;5065799;28;20570;-78
2023/10/05 10:07:16;;;;;;;8.80;2.40;;;;;;;;;;5068364;28;20484;-79
2023/10/05 10:09:46;;;;;;;11.10;2.60;;;;;;;;;;5068133;28;20093;-78
2023/10/05 10:12:25;;;;;;;8.25;2.42;;;;;;;;;;5069061;28;20048;-79
2023/10/05 10:14:53;;;;;;;8.70;2.60;;;;;;;;;;5071489;28;20094;-78
2023/10/05 10:17:27;;;;;;;9.57;2.53;;;;;;;;;;5052599;28;20503;-79
2023/10/05 10:20:58;;;;;;;11.95;3.03;;;;;;;;;;5066422;28;20453;-79
2023/10/05 10:23:08;;;;;;;8.55;2.85;;;;;;;;;;5053157;28;20183;-79
2023/10/05 10:25:38;;;;;;;7.55;3.13;;;;;;;;;;5049819;28;20107;-79
2023/10/05 10:28:39;;;;;;;6.53;2.45;;;;;;;;;;5047386;28;20024;-79
2023/10/05 10:31:42;;;;;;;8.05;2.70;;;;;;;;;;5049387;28;20400;-78
2023/10/05 10:34:28;;;;;;;6.78;2.60;;;;;;;;;;5056277;28;20040;-79
2023/10/05 10:36:57;;;;;;;10.73;3.05;;;;;;;;;;5066918;28;20469;-79
2023/10/05 10:39:33;;;;;;;9.13;2.97;;;;;;;;;;5068193;28;20506;-86
2023/10/05 10:44:28;;;;;;;10.10;2.90;;;;;;;;;;5065806;28;20108;-79
2023/10/05 10:47:11;;;;;;;10.82;2.90;;;;;;;;;;5067800;28;20167;-79
2023/10/05 10:49:39;;;;;;;9.93;3.35;;;;;;;;;;5051011;28;20013;-79
2023/10/05 10:52:11;;;;;;;10.38;2.92;;;;;;;;;;5049047;28;20730;-79
2023/10/05 10:54:42;;;;;;;10.20;3.05;;;;;;;;;;5054401;28;20059;-79
2023/10/05 10:57:09;;;;;;;6.78;2.58;;;;;;;;;;5052223;28;20782;-80
2023/10/05 10:59:41;;;;;;;9.90;2.78;;;;;;;;;;5067123;28;20028;-79
2023/10/05 11:02:11;;;;;;;7.93;2.65;;;;;;;;;;5047952;28;20565;-80
2023/10/05 11:04:39;;;;;;;7.85;2.80;;;;;;;;;;5061731;28;20051;-79
2023/10/05 11:07:07;;;;;;;10.48;2.70;;;;;;;;;;5065764;28;20429;-79
2023/10/05 11:09:47;;;;;;;11.27;2.65;;;;;;;;;;5062176;28;20020;-79
2023/10/05 11:12:16;;;;;;;11.48;2.83;;;;;;;;;;5067169;28;20021;-79
2023/10/05 11:14:42;;;;;;;10.70;2.30;;;;;;;;;;5067612;28;20147;-80
2023/10/05 11:17:45;;;;;;;7.10;2.33;;;;;;;;;;5071745;28;20104;-80
2023/10/05 11:20:24;;;;;;;11.32;2.40;;;;;;;;;;5050566;28;20043;-79
2023/10/05 11:22:54;;;;;;;10.50;2.70;;;;;;;;;;5067821;28;20705;-79
2023/10/05 11:25:43;;;;;;;7.90;2.92;;;;;;;;;;5044003;28;20032;-79
2023/10/05 11:28:12;;;;;;;7.15;2.63;;;;;;;;;;5061330;28;20241;-79
2023/10/05 11:30:48;;;;;;;8.10;2.55;;;;;;;;;;5069439;28;20472;-77
2023/10/05 11:33:17;;;;;;;10.30;2.40;;;;;;;;;;5069849;28;20495;-77
2023/10/05 11:35:51;;;;;;;7.97;2.30;;;;;;;;;;5051688;28;20024;-77
2023/10/05 11:38:19;;;;;;;8.30;2.47;;;;;;;;;;5050106;28;20115;-78
2023/10/05 11:40:55;;;;;;;7.78;2.00;;;;;;;;;;5049137;28;20165;-79
2023/10/05 11:43:22;;;;;;;7.65;2.28;;;;;;;;;;5048908;28;20039;-77
2023/10/05 11:46:17;;;;;;;10.95;2.97;;;;;;;;;;5070096;28;20378;-78
2023/10/05 11:48:48;;;;;;;7.85;2.03;;;;;;;;;;5066225;28;20477;-76
2023/10/05 11:51:19;;;;;;;5.32;1.98;;;;;;;;;;5049310;28;20024;-77
2023/10/05 11:53:44;;;;;;;7.30;1.92;;;;;;;;;;5072850;28;20358;-76
2023/10/05 11:56:10;;;;;;;8.32;2.10;;;;;;;;;;5052830;28;20043;-77
2023/10/05 11:58:41;;;;;;;6.93;2.15;;;;;;;;;;5050295;28;20025;-76
2023/10/05 12:01:07;;;;;;;10.63;2.30;;;;;;;;;;5049094;28;20381;-77
2023/10/05 12:03:32;;;;;;;9.57;2.00;;;;;;;;;;5062344;28;20027;-77
2023/10/05 12:06:01;;;;;;;7.43;2.13;;;;;;;;;;5063035;28;20024;-77
2023/10/05 12:08:30;;;;;;;6.03;2.30;;;;;;;;;;5051203;28;20119;-77
2023/10/05 12:11:00;;;;;;;9.40;2.13;;;;;;;;;;5067173;28;20059;-77
2023/10/05 12:13:26;;;;;;;7.88;2.20;;;;;;;;;;5066483;28;20146;-77
2023/10/05 12:15:52;;;;;;;9.30;2.90;;;;;;;;;;5069758;28;20021;-77
2023/10/05 12:18:17;;;;;;;8.57;2.45;;;;;;;;;;5068793;28;20032;-78
2023/10/05 12:20:42;;;;;;;10.15;2.28;;;;;;;;;;5044763;28;20063;-77
2023/10/05 12:23:12;;;;;;;9.98;1.90;;;;;;;;;;5049199;28;20479;-78
2023/10/05 12:25:37;;;;;;;5.68;1.73;;;;;;;;;;5065527;28;20031;-78
2023/10/05 12:28:03;;;;;;;5.32;1.85;;;;;;;;;;5051000;28;20020;-77
2023/10/05 12:30:31;;;;;;;7.28;1.60;;;;;;;;;;5065111;28;20501;-77
2023/10/05 12:32:56;;;;;;;9.32;1.98;;;;;;;;;;5065302;28;20480;-78
2023/10/05 12:35:23;;;;;;;8.65;2.80;;;;;;;;;;5069843;28;20036;-77
2023/10/05 12:37:49;;;;;;;8.77;2.22;;;;;;;;;;5051480;28;20117;-78
2023/10/05 12:40:17;;;;;;;13.32;2.63;;;;;;;;;;5066487;28;20452;-77
2023/10/05 12:42:51;;;;;;;6.00;2.28;;;;;;;;;;5045402;28;20051;-78
2023/10/05 12:45:19;;;;;;;6.75;1.88;;;;;;;;;;5048112;28;20492;-77
2023/10/05 12:47:44;;;;;;;6.68;1.83;;;;;;;;;;5053543;28;20028;-77
2023/10/05 12:50:12;;;;;;;10.15;2.47;;;;;;;;;;5067222;28;20024;-80
2023/10/05 12:52:37;;;;;;;6.72;1.95;;;;;;;;;;5064635;28;20035;-80
2023/10/05 12:55:07;;;;;;;5.32;2.30;;;;;;;;;;5054139;28;20020;-80
2023/10/05 12:57:33;;;;;;;6.47;1.88;;;;;;;;;;5067976;28;20161;-80
2023/10/05 12:59:58;;;;;;;7.60;1.90;;;;;;;;;;5056401;28;20110;-80
2023/10/05 13:02:23;;;;;;;7.32;2.42;;;;;;;;;;5072215;28;20059;-80
2023/10/05 13:04:49;;;;;;;7.82;2.03;;;;;;;;;;5046982;28;20032;-80
2023/10/05 13:07:21;;;;;;;7.68;2.30;;;;;;;;;;5047124;28;20043;-80
2023/10/05 13:09:59;;;;;;;6.15;2.35;;;;;;;;;;5069129;28;20392;-80
2023/10/05 13:12:24;;;;;;;6.53;1.90;;;;;;;;;;5065108;28;20065;-78
2023/10/05 13:14:49;;;;;;;8.18;2.20;;;;;;;;;;5066602;28;20064;-77
2023/10/05 13:17:15;;;;;;;6.28;2.17;;;;;;;;;;5047333;28;20028;-77
2023/10/05 13:19:41;;;;;;;7.95;2.30;;;;;;;;;;5046041;28;20055;-78
2023/10/05 13:22:06;;;;;;;7.57;1.98;;;;;;;;;;5049289;28;20064;-77
2023/10/05 13:24:33;;;;;;;8.77;2.45;;;;;;;;;;5068168;28;20057;-77
2023/10/05 13:26:59;;;;;;;6.22;2.40;;;;;;;;;;5064685;28;20032;-77
2023/10/05 13:29:26;;;;;;;5.50;2.35;;;;;;;;;;5070829;28;20021;-78
2023/10/05 13:31:53;;;;;;;6.13;2.22;;;;;;;;;;5053170;28;20159;-77
2023/10/05 13:34:19;;;;;;;7.95;2.22;;;;;;;;;;5054432;28;20039;-78
2023/10/05 13:36:50;;;;;;;9.30;2.50;;;;;;;;;;5054381;28;20477;-78
2023/10/05 13:39:20;;;;;;;7.05;2.30;;;;;;;;;;5053446;28;20595;-77
2023/10/05 13:41:47;;;;;;;7.55;2.50;;;;;;;;;;5069894;28;20044;-79
2023/10/05 13:44:14;;;;;;;6.75;2.15;;;;;;;;;;5069445;28;20025;-78
2023/10/05 13:46:44;;;;;;;6.53;2.42;;;;;;;;;;5072810;28;20032;-77
2023/10/05 13:49:11;;;;;;;7.18;2.28;;;;;;;;;;5065891;28;20031;-78
2023/10/05 13:51:37;;;;;;;7.30;1.98;;;;;;;;;;5049815;28;20025;-77
2023/10/05 13:54:06;;;;;;;4.18;1.73;;;;;;;;;;5053964;28;20039;-77
2023/10/05 13:56:33;;;;;;;7.22;2.00;;;;;;;;;;5053667;28;20067;-78
2023/10/05 13:59:01;;;;;;;9.75;2.00;;;;;;;;;;5051213;28;20048;-79
2023/10/05 14:01:38;;;;;;;5.80;1.90;;;;;;;;;;5072142;28;20028;-79
2023/10/05 14:04:04;;;;;;;8.32;1.77;;;;;;;;;;5052705;28;20062;-79
2023/10/05 14:06:30;;;;;;;5.57;1.92;;;;;;;;;;5076515;28;20023;-80
2023/10/05 14:09:05;;;;;;;4.78;1.73;;;;;;;;;;5053700;28;20016;-80
2023/10/05 14:11:33;;;;;;;5.93;2.05;;;;;;;;;;5067429;28;20035;-79
2023/10/05 14:14:00;;;;;;;8.57;2.13;;;;;;;;;;5053846;28;20434;-79
2023/10/05 14:16:25;;;;;;;5.97;2.08;;;;;;;;;;5073857;28;20028;-79
2023/10/05 14:18:51;;;;;;;5.22;1.60;;;;;;;;;;5063583;28;20028;-79
2023/10/05 14:21:16;;;;;;;3.28;1.38;;;;;;;;;;5066049;28;20032;-79
2023/10/05 14:23:45;;;;;;;6.57;1.92;;;;;;;;;;5065549;28;20100;-79
2023/10/05 14:26:11;;;;;;;4.45;1.65;;;;;;;;;;5042188;28;20028;-79
2023/10/05 14:28:37;;;;;;;3.78;1.50;;;;;;;;;;5049880;28;20024;-79
2023/10/05 14:31:03;;;;;;;5.85;1.73;;;;;;;;;;5070000;28;20024;-80
2023/10/05 14:33:29;;;;;;;6.78;1.83;;;;;;;;;;5053597;28;20040;-80
2023/10/05 14:35:58;;;;;;;8.52;2.20;;;;;;;;;;5054600;28;20527;-83
2023/10/05 14:38:25;;;;;;;10.13;2.15;;;;;;;;;;5041275;28;20523;-80
2023/10/05 14:40:56;;;;;;;5.90;2.10;;;;;;;;;;5058704;28;20472;-83
2023/10/05 14:43:31;;;;;;;6.18;2.10;;;;;;;;;;5065208;28;20017;-84
2023/10/05 14:46:00;;;;;;;4.60;1.90;;;;;;;;;;5044937;28;20082;-83
2023/10/05 14:48:31;;;;;;;4.75;1.90;;;;;;;;;;5057381;28;20037;-83
2023/10/05 14:51:04;;;;;;;6.22;2.17;;;;;;;;;;5056743;28;20134;-81
2023/10/05 14:53:31;;;;;;;5.72;2.00;;;;;;;;;;5064506;28;20073;-83
2023/10/05 14:55:57;;;;;;;7.15;2.15;;;;;;;;;;5062792;28;20487;-83
2023/10/05 14:58:25;;;;;;;8.10;2.47;;;;;;;;;;5043536;28;20016;-82
2023/10/05 15:00:51;;;;;;;9.75;2.30;;;;;;;;;;5060539;28;20073;-82
2023/10/05 15:03:17;;;;;;;8.93;2.40;;;;;;;;;;5060337;28;20039;-83
2023/10/05 15:05:43;;;;;;;8.77;2.50;;;;;;;;;;5062448;28;20028;-80
2023/10/05 15:08:11;;;;;;;8.25;2.10;;;;;;;;;;5058350;28;20476;-83
2023/10/05 15:10:37;;;;;;;7.55;2.22;;;;;;;;;;5059147;28;20020;-80
2023/10/05 15:13:03;;;;;;;6.97;2.20;;;;;;;;;;5058267;28;20082;-79
2023/10/05 15:15:30;;;;;;;8.05;2.90;;;;;;;;;;5057620;28;20662;-80